createdAt,value
2022-12-22T00:02:40.561Z,3.91
2022-12-22T00:05:37.664Z,3.24
2022-12-22T00:08:23.442Z,3.71
2022-12-22T00:11:09.084Z,3.90
2022-12-22T00:13:54.671Z,3.89
2022-12-22T00:16:50.757Z,3.13
2022-12-22T00:19:36.563Z,3.84
2022-12-22T00:22:31.467Z,3.49
2022-12-22T00:25:16.458Z,3.82
2022-12-22T00:28:04.366Z,2.87
2022-12-22T00:30:49.614Z,2.94
2022-12-22T00:33:38.443Z,3.79
2022-12-22T00:36:25.624Z,3.29
2022-12-22T00:39:11.049Z,3.89
2022-12-22T00:41:55.908Z,3.91
2022-12-22T00:44:41.396Z,3.87
2022-12-22T00:47:33.154Z,3.85
2022-12-22T00:50:18.286Z,2.73
2022-12-22T00:53:03.502Z,3.11
2022-12-22T00:55:50.530Z,3.18
2022-12-22T00:58:38.680Z,3.90
2022-12-22T01:01:24.030Z,3.70
2022-12-22T01:04:09.277Z,3.93
2022-12-22T01:06:54.719Z,2.77
2022-12-22T01:09:41.750Z,3.19
2022-12-22T01:12:36.716Z,3.95
2022-12-22T01:15:22.371Z,3.98
2022-12-22T01:18:07.818Z,2.75
2022-12-22T01:20:53.094Z,4.06
2022-12-22T01:23:38.224Z,4.05
2022-12-22T01:26:27.942Z,3.78
2022-12-22T01:29:13.260Z,4.08
2022-12-22T01:31:58.581Z,3.32
2022-12-22T01:34:43.475Z,4.12
2022-12-22T01:37:28.673Z,3.64
2022-12-22T01:40:13.750Z,4.13
2022-12-22T01:42:59.022Z,4.18
2022-12-22T01:45:50.218Z,4.10
2022-12-22T01:48:42.549Z,3.35
2022-12-22T01:51:36.521Z,4.12
2022-12-22T01:54:22.245Z,4.12
2022-12-22T01:57:08.520Z,2.60
2022-12-22T01:59:53.866Z,3.54
2022-12-22T02:02:40.388Z,3.67
2022-12-22T02:05:28.642Z,3.63
2022-12-22T02:08:23.453Z,4.10
2022-12-22T02:11:28.847Z,4.11
2022-12-22T02:14:40.206Z,3.69
2022-12-22T02:17:31.309Z,4.15
2022-12-22T02:20:47.201Z,4.05
2022-12-22T02:23:58.220Z,3.98
2022-12-22T02:26:50.291Z,4.12
2022-12-22T02:29:39.498Z,3.32
2022-12-22T02:32:25.377Z,4.11
2022-12-22T02:35:10.724Z,3.79
2022-12-22T02:38:15.155Z,4.15
2022-12-22T02:41:06.376Z,4.17
2022-12-22T02:44:03.608Z,4.13
2022-12-22T02:47:12.314Z,4.14
2022-12-22T02:50:02.633Z,4.15
2022-12-22T02:52:52.889Z,4.15
2022-12-22T02:55:39.245Z,3.21
2022-12-22T02:58:25.039Z,3.77
2022-12-22T03:01:10.433Z,4.21
2022-12-22T03:03:55.607Z,4.21
2022-12-22T03:06:40.926Z,4.22
2022-12-22T03:09:25.868Z,3.01
2022-12-22T03:12:10.989Z,4.12
2022-12-22T03:14:56.550Z,4.20
2022-12-22T03:17:41.462Z,3.39
2022-12-22T03:20:27.851Z,4.11
2022-12-22T03:23:13.042Z,3.84
2022-12-22T03:25:54.461Z,4.02
2022-12-22T03:28:29.914Z,3.16
2022-12-22T03:31:01.157Z,4.22
2022-12-22T03:33:28.725Z,4.19
2022-12-22T03:35:55.672Z,4.25
2022-12-22T03:38:22.262Z,4.25
2022-12-22T03:40:48.835Z,4.21
2022-12-22T03:43:35.405Z,3.86
2022-12-22T03:46:21.631Z,4.19
2022-12-22T03:49:06.852Z,4.26
2022-12-22T03:51:34.490Z,4.25
2022-12-22T03:54:01.251Z,4.13
2022-12-22T03:56:28.522Z,4.27
2022-12-22T03:58:55.106Z,4.27
2022-12-22T04:01:21.942Z,4.29
2022-12-22T04:03:49.804Z,3.92
2022-12-22T04:06:19.745Z,4.28
2022-12-22T04:08:46.710Z,4.33
2022-12-22T04:11:33.856Z,4.26
2022-12-22T04:14:00.652Z,4.13
2022-12-22T04:16:27.425Z,4.27
2022-12-22T04:18:54.103Z,4.01
2022-12-22T04:21:20.669Z,4.29
2022-12-22T04:23:51.158Z,4.25
2022-12-22T04:26:19.356Z,4.26
2022-12-22T04:28:46.097Z,3.94
2022-12-22T04:31:13.036Z,4.27
2022-12-22T04:33:39.599Z,4.24
2022-12-22T04:36:06.455Z,4.20
2022-12-22T04:38:33.028Z,3.28
2022-12-22T04:40:59.574Z,4.19
2022-12-22T04:43:26.151Z,4.08
2022-12-22T04:45:55.794Z,3.04
2022-12-22T04:48:24.500Z,4.16
2022-12-22T04:50:52.558Z,4.14
2022-12-22T04:53:19.195Z,4.15
2022-12-22T04:55:51.683Z,4.21
2022-12-22T04:58:18.233Z,3.83
2022-12-22T05:00:44.833Z,4.01
2022-12-22T05:03:11.563Z,4.01
2022-12-22T05:05:38.543Z,3.94
2022-12-22T05:08:05.742Z,4.19
2022-12-22T05:10:32.732Z,2.86
2022-12-22T05:12:59.429Z,4.20
2022-12-22T05:15:31.652Z,4.22
2022-12-22T05:17:59.625Z,4.18
2022-12-22T05:20:29.465Z,4.17
2022-12-22T05:22:56.138Z,3.07
2022-12-22T05:25:22.730Z,4.09
2022-12-22T05:27:50.717Z,4.07
2022-12-22T05:30:18.790Z,2.83
2022-12-22T05:32:46.217Z,4.09
2022-12-22T05:35:12.942Z,3.38
2022-12-22T05:37:39.532Z,3.18
2022-12-22T05:40:07.782Z,4.14
2022-12-22T05:42:37.322Z,4.03
2022-12-22T05:45:18.642Z,4.18
2022-12-22T05:47:48.104Z,4.03
2022-12-22T05:50:17.492Z,4.17
2022-12-22T05:52:44.828Z,3.44
2022-12-22T05:55:12.554Z,4.13
2022-12-22T05:57:39.311Z,4.12
2022-12-22T06:00:08.619Z,4.17
2022-12-22T06:02:44.983Z,4.05
2022-12-22T06:05:13.762Z,4.06
2022-12-22T06:07:40.759Z,4.08
2022-12-22T06:10:12.260Z,4.11
2022-12-22T06:12:39.535Z,2.81
2022-12-22T06:15:08.388Z,3.34
2022-12-22T06:17:40.421Z,3.24
2022-12-22T06:20:11.967Z,3.38
2022-12-22T06:22:38.790Z,3.48
2022-12-22T06:25:05.797Z,2.92
2022-12-22T06:27:32.474Z,3.89
2022-12-22T06:29:59.075Z,3.77
2022-12-22T06:32:25.672Z,4.25
2022-12-22T06:34:57.328Z,4.27
2022-12-22T06:37:24.004Z,4.29
2022-12-22T06:39:50.598Z,3.93
2022-12-22T06:42:35.739Z,3.89
2022-12-22T06:45:02.708Z,3.94
2022-12-22T06:47:29.358Z,4.32
2022-12-22T06:49:55.998Z,4.28
2022-12-22T06:52:22.625Z,4.35
2022-12-22T06:54:49.214Z,3.74
2022-12-22T06:57:16.410Z,4.33
2022-12-22T06:59:43.002Z,4.51
2022-12-22T07:02:11.511Z,4.18
2022-12-22T07:04:38.257Z,4.57
2022-12-22T07:07:04.834Z,4.23
2022-12-22T07:09:31.414Z,4.31
2022-12-22T07:11:57.954Z,4.57
2022-12-22T07:14:24.624Z,4.62
2022-12-22T07:16:51.269Z,4.61
2022-12-22T07:19:17.898Z,4.63
2022-12-22T07:21:44.600Z,4.23
2022-12-22T07:24:11.229Z,4.51
2022-12-22T07:26:37.894Z,4.74
2022-12-22T07:29:04.519Z,4.49
2022-12-22T07:31:31.249Z,3.27
2022-12-22T07:33:57.942Z,4.45
2022-12-22T07:36:24.536Z,3.37
2022-12-22T07:38:51.821Z,4.76
2022-12-22T07:41:38.826Z,4.89
2022-12-22T07:44:06.710Z,4.89
2022-12-22T07:46:36.183Z,4.96
2022-12-22T07:49:23.708Z,4.95
2022-12-22T07:51:50.543Z,5.03
2022-12-22T07:54:19.424Z,5.05
2022-12-22T07:56:46.818Z,5.09
2022-12-22T07:59:13.601Z,4.27
2022-12-22T08:01:41.844Z,4.36
2022-12-22T08:04:10.233Z,5.23
2022-12-22T08:06:37.130Z,5.29
2022-12-22T08:09:05.070Z,5.33
2022-12-22T08:11:31.876Z,5.39
2022-12-22T08:14:01.620Z,5.42
2022-12-22T08:16:28.495Z,5.50
2022-12-22T08:18:55.332Z,5.57
2022-12-22T08:21:21.991Z,5.64
2022-12-22T08:23:48.623Z,4.69
2022-12-22T08:26:40.514Z,5.75
2022-12-22T08:29:12.793Z,5.82
2022-12-22T08:31:40.710Z,5.85
2022-12-22T08:34:10.443Z,5.91
2022-12-22T08:36:40.216Z,5.97
2022-12-22T08:39:07.862Z,5.41
2022-12-22T08:41:51.380Z,6.18
2022-12-22T08:44:23.266Z,6.29
2022-12-22T08:46:50.905Z,6.40
2022-12-22T08:49:17.563Z,6.48
2022-12-22T08:51:45.025Z,6.31
2022-12-22T08:54:12.129Z,5.78
2022-12-22T08:56:39.135Z,6.94
2022-12-22T08:59:07.900Z,7.06
2022-12-22T09:01:37.460Z,6.92
2022-12-22T09:04:05.163Z,7.10
2022-12-22T09:06:40.158Z,6.96
2022-12-22T09:09:10.089Z,6.88
2022-12-22T09:11:37.186Z,7.53
2022-12-22T09:14:04.672Z,7.56
2022-12-22T09:16:33.209Z,7.63
2022-12-22T09:19:00.403Z,6.48
2022-12-22T09:21:27.930Z,7.87
2022-12-22T09:23:56.134Z,7.67
2022-12-22T09:26:24.729Z,8.27
2022-12-22T09:28:51.298Z,8.50
2022-12-22T09:31:19.939Z,8.69
2022-12-22T09:33:47.044Z,8.65
2022-12-22T09:36:18.856Z,9.05
2022-12-22T09:38:45.537Z,9.21
2022-12-22T09:41:22.034Z,9.33
2022-12-22T09:43:48.738Z,9.37
2022-12-22T09:46:21.336Z,9.39
2022-12-22T09:48:48.558Z,8.99
2022-12-22T09:51:21.043Z,9.42
2022-12-22T09:53:58.892Z,9.50
2022-12-22T09:58:55.110Z,8.97
2022-12-22T10:01:56.929Z,9.79
2022-12-22T10:04:45.191Z,9.91
2022-12-22T10:07:34.944Z,9.95
2022-12-22T10:10:27.535Z,10.06
2022-12-22T10:13:02.484Z,10.07
2022-12-22T10:15:41.029Z,9.72
2022-12-22T10:18:35.363Z,10.40
2022-12-22T10:21:03.620Z,10.52
2022-12-22T10:23:37.133Z,10.61
2022-12-22T10:26:28.090Z,10.61
2022-12-22T10:29:10.495Z,10.63
2022-12-22T10:31:57.240Z,9.90
2022-12-22T10:34:23.873Z,9.82
2022-12-22T10:36:53.577Z,10.94
2022-12-22T10:39:26.171Z,9.84
2022-12-22T10:41:58.123Z,11.23
2022-12-22T10:44:30.980Z,11.41
2022-12-22T10:47:00.520Z,11.05
2022-12-22T10:52:32.340Z,11.34
2022-12-22T10:55:20.335Z,11.45
2022-12-22T10:57:47.297Z,10.75
2022-12-22T11:00:27.147Z,11.49
2022-12-22T11:02:56.526Z,11.45
2022-12-22T11:05:23.325Z,11.58
2022-12-22T11:07:50.007Z,10.72
2022-12-22T11:10:46.536Z,11.77
2022-12-22T11:13:22.364Z,11.79
2022-12-22T11:15:58.527Z,11.34
2022-12-22T11:18:51.910Z,11.61
2022-12-22T11:21:41.463Z,11.62
2022-12-22T11:24:40.565Z,11.57
2022-12-22T11:27:25.808Z,11.58
2022-12-22T11:30:16.855Z,10.93
2022-12-22T11:33:22.943Z,11.44
2022-12-22T11:36:09.638Z,11.51
2022-12-22T11:38:45.737Z,11.48
2022-12-22T11:41:23.804Z,11.54
2022-12-22T11:44:09.629Z,11.49
2022-12-22T11:46:39.352Z,11.35
2022-12-22T11:49:08.869Z,11.38
2022-12-22T11:51:37.732Z,11.15
2022-12-22T11:54:39.554Z,11.07
2022-12-22T11:57:34.521Z,11.02
2022-12-22T12:00:04.090Z,10.91
2022-12-22T12:02:53.030Z,10.89
2022-12-22T12:05:26.808Z,10.88
2022-12-22T12:08:04.412Z,10.30
2022-12-22T12:10:57.313Z,11.03
2022-12-22T12:13:55.211Z,10.26
2022-12-22T12:16:24.718Z,10.96
2022-12-22T12:19:10.998Z,10.75
2022-12-22T12:21:54.397Z,9.67
2022-12-22T12:24:40.500Z,10.64
2022-12-22T12:27:16.132Z,10.66
2022-12-22T12:30:37.588Z,10.63
2022-12-22T12:33:03.822Z,10.60
2022-12-22T12:35:55.399Z,10.55
2022-12-22T12:39:05.837Z,10.79
2022-12-22T12:41:39.394Z,10.86
2022-12-22T12:44:12.122Z,10.49
2022-12-22T12:46:46.432Z,10.57
2022-12-22T12:49:38.609Z,10.52
2022-12-22T12:52:05.144Z,10.30
2022-12-22T12:54:40.675Z,10.26
2022-12-22T12:57:08.397Z,10.27
2022-12-22T12:59:40.691Z,10.12
2022-12-22T13:02:27.986Z,9.96
2022-12-22T13:05:04.053Z,9.92
2022-12-22T13:08:08.356Z,9.72
2022-12-22T13:10:42.111Z,9.69
2022-12-22T13:13:34.555Z,9.68
2022-12-22T13:16:01.701Z,9.75
2022-12-22T13:18:34.586Z,9.68
2022-12-22T13:21:26.151Z,9.63
2022-12-22T13:24:23.472Z,9.61
2022-12-22T13:26:44.102Z,9.24
2022-12-22T13:29:25.643Z,9.49
2022-12-22T13:32:14.324Z,9.55
2022-12-22T13:35:29.211Z,9.58
2022-12-22T13:37:46.730Z,9.56
2022-12-22T13:40:15.761Z,9.58
2022-12-22T13:42:47.189Z,8.97
2022-12-22T13:45:33.001Z,9.58
2022-12-22T13:48:02.110Z,9.55
2022-12-22T13:50:42.570Z,9.21
2022-12-22T13:53:13.047Z,8.97
2022-12-22T13:55:51.379Z,9.28
2022-12-22T13:58:27.702Z,9.47
2022-12-22T14:01:02.943Z,9.44
2022-12-22T14:03:59.357Z,8.98
2022-12-22T14:06:32.046Z,8.38
2022-12-22T14:09:17.469Z,9.23
2022-12-22T14:12:07.516Z,9.19
2022-12-22T14:14:38.317Z,9.16
2022-12-22T14:17:14.312Z,8.79
2022-12-22T14:19:40.921Z,9.10
2022-12-22T14:22:11.930Z,8.72
2022-12-22T14:24:48.605Z,8.59
2022-12-22T14:27:38.372Z,8.96
2022-12-22T14:30:15.597Z,8.42
2022-12-22T14:32:54.639Z,8.89
2022-12-22T14:35:21.516Z,8.74
2022-12-22T14:37:49.423Z,8.82
2022-12-22T14:40:28.997Z,8.85
2022-12-22T14:42:57.738Z,7.96
2022-12-22T14:45:24.930Z,8.88
2022-12-22T14:47:53.844Z,8.87
2022-12-22T14:50:24.073Z,8.68
2022-12-22T14:52:53.376Z,8.79
2022-12-22T14:55:35.309Z,8.75
2022-12-22T14:58:10.911Z,8.82
2022-12-22T15:00:43.240Z,8.82
2022-12-22T15:03:25.254Z,8.83
2022-12-22T15:05:53.070Z,8.87
2022-12-22T15:08:39.916Z,8.51
2022-12-22T15:11:18.719Z,7.77
2022-12-22T15:13:50.217Z,8.57
2022-12-22T15:16:22.433Z,8.82
2022-12-22T15:18:51.836Z,8.84
2022-12-22T15:21:19.640Z,7.94
2022-12-22T15:23:46.739Z,8.78
2022-12-22T15:26:13.343Z,8.47
2022-12-22T15:28:39.891Z,8.06
2022-12-22T15:31:13.847Z,8.76
2022-12-22T15:33:41.267Z,7.83
2022-12-22T15:36:11.310Z,8.05
2022-12-22T15:38:39.152Z,8.49
2022-12-22T15:41:07.180Z,8.31
2022-12-22T15:46:22.597Z,8.81
2022-12-22T15:48:49.343Z,8.07
2022-12-22T15:51:22.570Z,8.10
2022-12-22T15:53:49.495Z,8.76
2022-12-22T15:56:22.057Z,8.76
2022-12-22T15:58:49.398Z,8.42
2022-12-22T16:01:16.167Z,8.04
2022-12-22T16:03:42.867Z,8.60
2022-12-22T16:06:15.190Z,8.69
2022-12-22T16:08:45.354Z,8.66
2022-12-22T16:11:12.141Z,8.44
2022-12-22T16:13:38.846Z,8.09
2022-12-22T16:16:05.615Z,8.40
2022-12-22T16:18:32.741Z,8.15
2022-12-22T16:21:07.678Z,8.71
2022-12-22T16:23:36.622Z,8.66
2022-12-22T16:26:04.883Z,8.70
2022-12-22T16:28:33.029Z,8.70
2022-12-22T16:31:00.642Z,8.71
2022-12-22T16:33:27.631Z,8.67
2022-12-22T16:35:54.283Z,8.70
2022-12-22T16:38:23.483Z,8.67
2022-12-22T16:40:54.621Z,7.65
2022-12-22T16:46:12.490Z,8.05
2022-12-22T16:48:42.393Z,8.34
2022-12-22T16:51:16.839Z,8.66
2022-12-22T16:53:43.477Z,8.48
2022-12-22T16:56:30.617Z,8.67
2022-12-22T16:58:57.344Z,8.05
2022-12-22T17:01:30.044Z,8.71
2022-12-22T17:03:58.031Z,8.66
2022-12-22T17:06:24.697Z,8.58
2022-12-22T17:08:51.469Z,8.63
2022-12-22T17:11:27.458Z,8.65
2022-12-22T17:14:02.874Z,7.74
2022-12-22T17:16:29.518Z,7.88
2022-12-22T17:18:56.178Z,8.60
2022-12-22T17:21:23.011Z,8.52
2022-12-22T17:23:54.842Z,8.56
2022-12-22T17:26:24.633Z,8.54
2022-12-22T17:28:51.945Z,8.54
2022-12-22T17:31:21.044Z,8.49
2022-12-22T17:33:48.466Z,7.37
2022-12-22T17:36:23.911Z,8.56
2022-12-22T17:38:50.588Z,8.50
2022-12-22T17:41:17.439Z,8.62
2022-12-22T17:43:45.228Z,8.61
2022-12-22T17:46:19.847Z,8.57
2022-12-22T17:48:47.717Z,8.54
2022-12-22T17:51:25.392Z,8.42
2022-12-22T17:53:52.699Z,8.60
2022-12-22T17:56:22.003Z,8.67
2022-12-22T17:58:49.399Z,8.70
2022-12-22T18:01:30.938Z,8.73
2022-12-22T18:03:58.016Z,8.74
2022-12-22T18:06:30.713Z,8.78
2022-12-22T18:08:58.023Z,8.85
2022-12-22T18:11:25.486Z,7.87
2022-12-22T18:13:54.153Z,8.93
2022-12-22T18:16:22.968Z,8.30
2022-12-22T18:18:50.109Z,8.51
2022-12-22T18:21:20.735Z,9.00
2022-12-22T18:23:51.492Z,8.85
2022-12-22T18:26:23.159Z,8.67
2022-12-22T18:28:52.341Z,8.63
2022-12-22T18:31:22.989Z,8.28
2022-12-22T18:33:52.657Z,8.24
2022-12-22T18:36:42.205Z,9.03
2022-12-22T18:39:19.399Z,8.97
2022-12-22T18:41:46.452Z,9.04
2022-12-22T18:44:17.863Z,9.00
2022-12-22T18:46:45.266Z,9.05
2022-12-22T18:49:12.377Z,8.74
2022-12-22T18:51:44.227Z,8.01
2022-12-22T18:54:22.167Z,9.06
2022-12-22T18:56:50.590Z,9.06
2022-12-22T18:59:23.822Z,8.49
2022-12-22T19:01:51.321Z,7.89
2022-12-22T19:04:18.370Z,8.22
2022-12-22T19:06:44.989Z,9.02
2022-12-22T19:09:15.416Z,8.20
2022-12-22T19:11:43.181Z,9.06
2022-12-22T19:14:27.775Z,8.43
2022-12-22T19:16:54.622Z,8.18
2022-12-22T19:19:21.611Z,9.04
2022-12-22T19:21:51.119Z,9.02
2022-12-22T19:24:17.711Z,8.34
2022-12-22T19:26:44.332Z,8.40
2022-12-22T19:29:14.245Z,9.06
2022-12-22T19:31:42.799Z,9.00
2022-12-22T19:34:16.233Z,9.04
2022-12-22T19:36:42.805Z,8.43
2022-12-22T19:39:09.547Z,9.02
2022-12-22T19:41:41.813Z,9.05
2022-12-22T19:44:27.204Z,9.02
2022-12-22T19:46:55.443Z,9.02
2022-12-22T19:49:24.647Z,9.02
2022-12-22T19:51:51.398Z,9.00
2022-12-22T19:54:19.344Z,9.02
2022-12-22T19:56:49.678Z,8.68
2022-12-22T19:59:32.403Z,8.63
2022-12-22T20:02:03.275Z,9.07
2022-12-22T20:04:30.204Z,9.05
2022-12-22T20:06:56.799Z,8.98
2022-12-22T20:09:23.355Z,8.15
2022-12-22T20:11:49.927Z,9.12
2022-12-22T20:14:18.323Z,9.17
2022-12-22T20:16:45.319Z,9.15
2022-12-22T20:19:15.522Z,8.32
2022-12-22T20:21:42.532Z,8.37
2022-12-22T20:24:19.463Z,9.00
2022-12-22T20:26:51.795Z,8.39
2022-12-22T20:29:20.564Z,9.05
2022-12-22T20:31:47.175Z,7.76
2022-12-22T20:34:13.812Z,9.07
2022-12-22T20:36:40.677Z,8.99
2022-12-22T20:39:12.649Z,8.96
2022-12-22T20:41:39.249Z,8.33
2022-12-22T20:44:05.913Z,8.86
2022-12-22T20:46:32.782Z,8.80
2022-12-22T20:49:01.656Z,8.76
2022-12-22T20:51:32.062Z,8.41
2022-12-22T20:53:59.445Z,8.66
2022-12-22T20:56:29.915Z,8.67
2022-12-22T20:58:58.578Z,7.73
2022-12-22T21:01:25.537Z,7.85
2022-12-22T21:03:52.378Z,8.62
2022-12-22T21:06:32.799Z,8.62
2022-12-22T21:09:00.684Z,7.97
2022-12-22T21:11:28.401Z,7.75
2022-12-22T21:13:56.405Z,8.22
2022-12-22T21:16:26.119Z,8.03
2022-12-22T21:18:53.845Z,8.54
2022-12-22T21:21:21.045Z,8.53
2022-12-22T21:23:47.869Z,8.52
2022-12-22T21:26:29.583Z,8.48
2022-12-22T21:28:56.437Z,8.12
2022-12-22T21:31:23.041Z,8.47
2022-12-22T21:33:50.399Z,8.19
2022-12-22T21:36:27.040Z,8.19
2022-12-22T21:38:59.845Z,8.43
2022-12-22T21:41:48.063Z,8.44
2022-12-22T21:44:14.725Z,8.02
2022-12-22T21:46:45.653Z,8.40
2022-12-22T21:49:19.948Z,7.84
2022-12-22T21:51:48.095Z,8.37
2022-12-22T21:54:15.683Z,8.37
2022-12-22T21:56:42.268Z,8.10
2022-12-22T21:59:09.167Z,8.39
2022-12-22T22:01:35.919Z,7.95
2022-12-22T22:04:02.709Z,8.42
2022-12-22T22:06:29.338Z,8.41
2022-12-22T22:08:55.961Z,8.04
2022-12-22T22:11:24.752Z,8.40
2022-12-22T22:13:51.810Z,7.84
2022-12-22T22:16:19.260Z,8.17
2022-12-22T22:18:47.108Z,8.30
2022-12-22T22:21:15.680Z,7.68
2022-12-22T22:23:42.897Z,8.44
2022-12-22T22:26:12.850Z,8.43
2022-12-22T22:28:39.456Z,8.46
2022-12-22T22:31:11.348Z,8.46
2022-12-22T22:33:38.014Z,7.84
2022-12-22T22:36:08.371Z,8.22
2022-12-22T22:38:35.675Z,8.46
2022-12-22T22:41:02.313Z,8.18
2022-12-22T22:43:28.922Z,8.48
2022-12-22T22:45:55.544Z,7.75
2022-12-22T22:48:23.504Z,8.46
2022-12-22T22:50:50.842Z,8.43
2022-12-22T22:53:17.448Z,7.36
2022-12-22T22:55:44.030Z,7.59
2022-12-22T22:58:13.528Z,8.43
2022-12-22T23:00:40.193Z,8.44
2022-12-22T23:03:06.834Z,7.67
2022-12-22T23:05:33.690Z,8.12
2022-12-22T23:08:00.324Z,8.44
2022-12-22T23:10:27.093Z,8.44
2022-12-22T23:12:54.437Z,8.00
2022-12-22T23:15:21.026Z,8.46
2022-12-22T23:17:47.571Z,8.04
2022-12-22T23:20:14.151Z,8.40
2022-12-22T23:22:40.788Z,7.88
2022-12-22T23:25:08.116Z,8.30
2022-12-22T23:27:34.779Z,7.76
2022-12-22T23:30:01.494Z,8.03
2022-12-22T23:32:28.083Z,7.70
2022-12-22T23:34:54.616Z,7.89
2022-12-22T23:37:21.232Z,7.33
2022-12-22T23:39:47.887Z,8.39
2022-12-22T23:42:14.437Z,7.74
2022-12-22T23:44:40.969Z,7.58
2022-12-22T23:47:07.792Z,8.36
2022-12-22T23:49:34.448Z,8.34
2022-12-22T23:52:01.029Z,8.20
2022-12-22T23:54:29.394Z,8.28
2022-12-22T23:56:56.041Z,7.08
2022-12-22T23:59:22.625Z,7.74
